Time;durP1;ratioP1;P1;durP2;ratioP2;P2;SDS_P1;SDS_P2;PMS_P1;PMS_P2;Temp;Humidity;BMP_temperature;BMP_pressure;BME280_temperature;BME280_humidity;BME280_pressure;Samples;Min_cycle;Max_cycle;Signal;HPM_P1;HPM_P2
2022/01/27 00:03:18;;;;;;;5.95;4.60;;;;;;;;;;4977640;28;20033;-69
2022/01/27 00:05:21;;;;;;;6.25;4.97;;;;;;;;;;4980784;28;20043;-71
2022/01/27 00:12:59;;;;;;;8.13;7.30;;;;;;;;;;4981847;28;20033;-69
2022/01/27 00:15:31;;;;;;;6.10;5.50;;;;;;;;;;4989578;28;20030;-69
2022/01/27 00:18:01;;;;;;;7.97;5.70;;;;;;;;;;4986460;28;20610;-69
2022/01/27 00:20:28;;;;;;;6.88;4.50;;;;;;;;;;4986451;28;20854;-70
2022/01/27 00:22:54;;;;;;;5.95;5.10;;;;;;;;;;4983851;28;20492;-69
2022/01/27 00:25:21;;;;;;;6.32;4.70;;;;;;;;;;4980291;28;20034;-69
2022/01/27 00:27:47;;;;;;;6.88;4.55;;;;;;;;;;4993499;28;20034;-70
2022/01/27 00:30:13;;;;;;;6.03;4.88;;;;;;;;;;4984155;28;20026;-70
2022/01/27 00:32:40;;;;;;;5.25;4.70;;;;;;;;;;4986439;28;20141;-72
2022/01/27 00:35:06;;;;;;;5.20;4.40;;;;;;;;;;4990601;28;20022;-70
2022/01/27 00:37:33;;;;;;;9.13;4.70;;;;;;;;;;4988117;28;20030;-70
2022/01/27 00:39:59;;;;;;;5.82;4.57;;;;;;;;;;4982699;28;20085;-70
2022/01/27 00:42:26;;;;;;;7.80;4.72;;;;;;;;;;4984535;28;20026;-70
2022/01/27 00:44:53;;;;;;;5.55;4.30;;;;;;;;;;4984128;28;20053;-72
2022/01/27 00:47:19;;;;;;;5.55;4.53;;;;;;;;;;4993114;28;20026;-72
2022/01/27 00:49:45;;;;;;;5.75;4.53;;;;;;;;;;4985722;28;20065;-72
2022/01/27 00:52:16;;;;;;;6.47;4.57;;;;;;;;;;4988331;28;20026;-72
2022/01/27 00:54:43;;;;;;;6.60;4.28;;;;;;;;;;4980797;28;20373;-72
2022/01/27 00:57:36;;;;;;;7.63;6.10;;;;;;;;;;4985893;28;20034;-70
2022/01/27 01:00:04;;;;;;;13.48;10.45;;;;;;;;;;5006321;28;20022;-70
2022/01/27 01:07:48;;;;;;;13.60;9.90;;;;;;;;;;4982709;28;20505;-71
2022/01/27 01:11:05;;;;;;;8.00;6.30;;;;;;;;;;4984414;28;20609;-71
2022/01/27 01:15:56;;;;;;;7.65;4.78;;;;;;;;;;4991753;28;20035;-71
2022/01/27 01:32:33;;;;;;;5.10;4.32;;;;;;;;;;4983586;28;20027;-71
2022/01/27 01:34:46;;;;;;;7.00;4.70;;;;;;;;;;4991933;28;20047;-73
2022/01/27 01:37:17;;;;;;;5.40;4.20;;;;;;;;;;4984894;28;20461;-72
2022/01/27 01:39:43;;;;;;;5.18;4.15;;;;;;;;;;4991891;28;20060;-72
2022/01/27 01:42:10;;;;;;;4.70;3.90;;;;;;;;;;4983853;28;20045;-71
2022/01/27 01:44:37;;;;;;;4.70;3.80;;;;;;;;;;4989288;28;20026;-72
2022/01/27 01:47:03;;;;;;;5.00;3.60;;;;;;;;;;5002945;28;20788;-71
2022/01/27 01:49:29;;;;;;;5.70;4.00;;;;;;;;;;4998642;28;20031;-72
2022/01/27 01:51:57;;;;;;;4.25;3.40;;;;;;;;;;4994998;28;20460;-71
2022/01/27 01:54:23;;;;;;;4.30;3.30;;;;;;;;;;5002553;28;20031;-73
2022/01/27 01:56:49;;;;;;;5.13;3.88;;;;;;;;;;4992810;28;20025;-70
2022/01/27 01:59:16;;;;;;;5.78;4.85;;;;;;;;;;4989906;28;20575;-72
2022/01/27 02:01:42;;;;;;;6.18;4.60;;;;;;;;;;4993092;28;20468;-71
2022/01/27 02:04:10;;;;;;;6.80;5.20;;;;;;;;;;4983688;28;20066;-71
2022/01/27 02:06:44;;;;;;;7.97;7.18;;;;;;;;;;4991612;28;20393;-72
2022/01/27 02:09:22;;;;;;;7.00;5.55;;;;;;;;;;4991737;28;20496;-72
2022/01/27 02:20:07;;;;;;;13.50;10.57;;;;;;;;;;4990691;28;20084;-72
2022/01/27 02:22:33;;;;;;;13.27;10.82;;;;;;;;;;4982626;28;20282;-72
2022/01/27 02:25:00;;;;;;;7.68;6.07;;;;;;;;;;4987679;28;20037;-72
2022/01/27 02:27:26;;;;;;;11.43;8.98;;;;;;;;;;4991717;28;20108;-72
2022/01/27 02:29:52;;;;;;;12.00;9.35;;;;;;;;;;4987021;28;20030;-72
2022/01/27 02:32:19;;;;;;;7.10;5.68;;;;;;;;;;4981210;28;20081;-71
2022/01/27 02:34:46;;;;;;;6.03;5.43;;;;;;;;;;4990764;28;20310;-72
2022/01/27 02:37:13;;;;;;;5.07;4.25;;;;;;;;;;4987741;28;20030;-72
2022/01/27 02:39:39;;;;;;;4.75;3.60;;;;;;;;;;4987117;28;20030;-71
2022/01/27 02:42:24;;;;;;;6.75;5.72;;;;;;;;;;4986469;28;20034;-72
2022/01/27 02:44:51;;;;;;;6.37;4.20;;;;;;;;;;4988288;28;20392;-73
2022/01/27 02:47:18;;;;;;;4.63;4.18;;;;;;;;;;4984486;28;20029;-72
2022/01/27 02:49:44;;;;;;;6.13;4.00;;;;;;;;;;4989460;28;20104;-71
2022/01/27 02:52:10;;;;;;;6.45;5.47;;;;;;;;;;4994871;28;20032;-72
2022/01/27 02:54:37;;;;;;;4.72;4.10;;;;;;;;;;4984702;28;20033;-72
2022/01/27 02:57:03;;;;;;;5.78;5.00;;;;;;;;;;4988778;28;20543;-72
2022/01/27 02:59:30;;;;;;;6.85;4.82;;;;;;;;;;4977570;28;20030;-72
2022/01/27 03:01:56;;;;;;;5.13;4.25;;;;;;;;;;4993846;28;20042;-72
2022/01/27 03:04:22;;;;;;;6.40;4.18;;;;;;;;;;4987411;28;20030;-72
2022/01/27 03:06:49;;;;;;;4.78;3.55;;;;;;;;;;4988661;28;20516;-72
2022/01/27 03:09:15;;;;;;;6.15;4.93;;;;;;;;;;4999376;28;20038;-73
2022/01/27 03:11:52;;;;;;;6.80;4.97;;;;;;;;;;4988878;28;20031;-72
2022/01/27 03:14:20;;;;;;;4.15;3.40;;;;;;;;;;4982835;28;20033;-72
2022/01/27 03:16:46;;;;;;;4.35;3.15;;;;;;;;;;4982630;28;20029;-73
2022/01/27 03:19:13;;;;;;;4.40;3.85;;;;;;;;;;4986190;28;20030;-72
2022/01/27 03:21:39;;;;;;;5.57;4.15;;;;;;;;;;4985983;28;20038;-71
2022/01/27 03:24:05;;;;;;;7.43;3.90;;;;;;;;;;4983941;28;20046;-73
2022/01/27 03:26:32;;;;;;;5.45;3.60;;;;;;;;;;4988755;28;20041;-73
2022/01/27 03:28:59;;;;;;;4.32;2.97;;;;;;;;;;4986286;28;20378;-72
2022/01/27 03:31:26;;;;;;;3.75;2.70;;;;;;;;;;4985530;28;20644;-73
2022/01/27 03:33:52;;;;;;;6.05;3.40;;;;;;;;;;4988704;28;20027;-72
2022/01/27 03:36:18;;;;;;;5.97;3.92;;;;;;;;;;4982983;28;20034;-71
2022/01/27 03:38:44;;;;;;;4.70;3.58;;;;;;;;;;4984574;28;20101;-72
2022/01/27 03:41:12;;;;;;;5.20;3.65;;;;;;;;;;4983379;28;20034;-72
2022/01/27 03:43:39;;;;;;;3.58;2.00;;;;;;;;;;4987498;28;20081;-72
2022/01/27 03:46:06;;;;;;;1.55;1.45;;;;;;;;;;4988720;28;20625;-72
2022/01/27 03:48:32;;;;;;;1.95;1.80;;;;;;;;;;4988505;28;20105;-72
2022/01/27 03:50:58;;;;;;;1.65;1.30;;;;;;;;;;4982081;28;20088;-73
2022/01/27 03:53:24;;;;;;;1.15;1.15;;;;;;;;;;4992734;28;20033;-72
2022/01/27 03:55:51;;;;;;;0.90;0.90;;;;;;;;;;4999474;28;20022;-72
2022/01/27 03:58:17;;;;;;;3.30;2.00;;;;;;;;;;4984879;28;20059;-72
2022/01/27 04:00:43;;;;;;;1.80;1.65;;;;;;;;;;4980202;28;20039;-72
2022/01/27 04:03:12;;;;;;;12.50;6.47;;;;;;;;;;4977355;28;20389;-72
2022/01/27 04:05:52;;;;;;;64.95;21.05;;;;;;;;;;4985642;28;20047;-73
2022/01/27 04:08:18;;;;;;;10.48;5.00;;;;;;;;;;4988169;28;20169;-72
2022/01/27 04:10:44;;;;;;;5.97;3.50;;;;;;;;;;4981901;28;20473;-72
2022/01/27 04:13:10;;;;;;;7.95;6.85;;;;;;;;;;4984472;28;20070;-72
2022/01/27 04:15:38;;;;;;;2.58;2.38;;;;;;;;;;4980945;28;20023;-72
2022/01/27 04:18:05;;;;;;;3.88;3.47;;;;;;;;;;4983321;28;20358;-72
2022/01/27 04:20:31;;;;;;;2.50;2.30;;;;;;;;;;4989502;28;20030;-72
2022/01/27 04:22:57;;;;;;;3.80;3.30;;;;;;;;;;4991310;28;20438;-72
2022/01/27 04:25:23;;;;;;;3.38;3.08;;;;;;;;;;4998605;28;20034;-73
2022/01/27 04:27:53;;;;;;;4.07;2.70;;;;;;;;;;4980514;28;20515;-71
2022/01/27 04:30:22;;;;;;;2.80;1.60;;;;;;;;;;4989823;28;20026;-73
2022/01/27 04:33:08;;;;;;;4.28;2.80;;;;;;;;;;4981293;28;20056;-72
2022/01/27 04:35:39;;;;;;;3.10;2.60;;;;;;;;;;4985977;28;20034;-72
2022/01/27 04:43:28;;;;;;;2.33;2.10;;;;;;;;;;4977034;28;20567;-71
2022/01/27 04:46:12;;;;;;;1.48;1.38;;;;;;;;;;4984087;28;20050;-72
2022/01/27 04:48:52;;;;;;;2.00;1.50;;;;;;;;;;4986449;28;20552;-72
2022/01/27 04:51:21;;;;;;;3.63;2.00;;;;;;;;;;4987595;28;20042;-72
2022/01/27 04:53:55;;;;;;;4.65;2.00;;;;;;;;;;4988433;28;20467;-72
2022/01/27 04:56:22;;;;;;;3.10;2.00;;;;;;;;;;4985972;28;20374;-71
2022/01/27 04:58:54;;;;;;;2.83;1.77;;;;;;;;;;4987403;28;20058;-72
2022/01/27 05:01:25;;;;;;;2.83;1.90;;;;;;;;;;4986803;28;20117;-72
2022/01/27 05:03:59;;;;;;;4.32;1.98;;;;;;;;;;4984268;28;20282;-72
2022/01/27 05:06:25;;;;;;;3.97;1.85;;;;;;;;;;4984121;28;20049;-72
2022/01/27 05:08:51;;;;;;;3.05;1.92;;;;;;;;;;4982890;28;20030;-72
2022/01/27 05:11:29;;;;;;;4.95;2.10;;;;;;;;;;4979400;28;20026;-73
2022/01/27 05:14:07;;;;;;;3.10;1.90;;;;;;;;;;5007304;28;20535;-73
2022/01/27 05:16:33;;;;;;;4.95;1.75;;;;;;;;;;4985794;28;20649;-72
2022/01/27 05:18:59;;;;;;;6.35;1.85;;;;;;;;;;4988810;28;20052;-72
2022/01/27 05:21:26;;;;;;;5.45;2.25;;;;;;;;;;4989676;28;20105;-71
2022/01/27 05:23:52;;;;;;;4.22;2.00;;;;;;;;;;4996872;28;20039;-72
2022/01/27 05:26:18;;;;;;;5.05;2.55;;;;;;;;;;4988977;28;20038;-72
2022/01/27 05:28:44;;;;;;;9.02;2.38;;;;;;;;;;4993653;28;20049;-73
2022/01/27 05:31:10;;;;;;;5.65;2.03;;;;;;;;;;4980044;28;20030;-72
2022/01/27 05:33:36;;;;;;;3.70;1.88;;;;;;;;;;5005093;28;20046;-71
2022/01/27 05:36:02;;;;;;;7.55;2.08;;;;;;;;;;4989081;28;20027;-73
2022/01/27 05:38:28;;;;;;;7.78;2.00;;;;;;;;;;4989534;28;20345;-72
2022/01/27 05:40:54;;;;;;;5.20;2.13;;;;;;;;;;4987693;28;20081;-72
2022/01/27 05:43:21;;;;;;;5.07;1.90;;;;;;;;;;4986452;28;20041;-73
2022/01/27 05:45:47;;;;;;;5.72;2.50;;;;;;;;;;4998656;28;20029;-71
2022/01/27 05:48:13;;;;;;;7.45;3.65;;;;;;;;;;4983504;28;20034;-73
2022/01/27 05:50:39;;;;;;;5.47;2.30;;;;;;;;;;4990523;28;20416;-72
2022/01/27 05:53:05;;;;;;;7.53;3.47;;;;;;;;;;4993468;28;20049;-72
2022/01/27 05:55:31;;;;;;;7.25;2.28;;;;;;;;;;4991460;28;20033;-71
2022/01/27 05:57:57;;;;;;;3.28;2.40;;;;;;;;;;4986954;28;20151;-72
2022/01/27 06:00:23;;;;;;;7.13;2.40;;;;;;;;;;4990382;28;20437;-73
2022/01/27 06:02:50;;;;;;;5.47;2.03;;;;;;;;;;4989497;28;20048;-72
2022/01/27 06:05:17;;;;;;;6.38;2.05;;;;;;;;;;4984285;28;20077;-72
2022/01/27 06:07:43;;;;;;;5.22;2.65;;;;;;;;;;4987691;28;20567;-72
2022/01/27 06:10:09;;;;;;;5.60;2.05;;;;;;;;;;4986166;28;20034;-72
2022/01/27 06:12:44;;;;;;;7.35;2.28;;;;;;;;;;4989495;28;20091;-73
2022/01/27 06:15:10;;;;;;;5.45;2.95;;;;;;;;;;4988755;28;20117;-72
2022/01/27 06:17:36;;;;;;;8.23;3.40;;;;;;;;;;4990059;28;20033;-72
2022/01/27 06:20:03;;;;;;;7.20;2.88;;;;;;;;;;4982297;28;20027;-72
2022/01/27 06:22:29;;;;;;;7.18;2.63;;;;;;;;;;4981792;28;20022;-72
2022/01/27 06:24:55;;;;;;;7.57;2.85;;;;;;;;;;4983577;28;20039;-72
2022/01/27 06:27:21;;;;;;;7.60;3.25;;;;;;;;;;4983457;28;20421;-73
2022/01/27 06:29:47;;;;;;;6.60;2.30;;;;;;;;;;4990992;28;20065;-72
2022/01/27 06:32:13;;;;;;;7.85;2.78;;;;;;;;;;4987041;28;20030;-71
2022/01/27 06:34:39;;;;;;;4.93;1.92;;;;;;;;;;4980245;28;20026;-72
2022/01/27 06:37:05;;;;;;;7.15;2.30;;;;;;;;;;4982507;28;20046;-73
2022/01/27 06:39:32;;;;;;;6.03;2.55;;;;;;;;;;4988899;28;20153;-72
2022/01/27 06:41:58;;;;;;;6.65;1.70;;;;;;;;;;4982080;28;20027;-73
2022/01/27 06:44:24;;;;;;;7.82;3.63;;;;;;;;;;4989750;28;20030;-72
2022/01/27 06:46:50;;;;;;;8.93;2.95;;;;;;;;;;4987183;28;20035;-72
2022/01/27 06:49:17;;;;;;;5.72;2.00;;;;;;;;;;4991833;28;20495;-71
2022/01/27 06:51:46;;;;;;;6.40;2.75;;;;;;;;;;4986523;28;20034;-73
2022/01/27 06:54:15;;;;;;;4.20;1.98;;;;;;;;;;4989953;28;20026;-72
2022/01/27 06:56:42;;;;;;;6.32;3.30;;;;;;;;;;4987203;28;20057;-72
2022/01/27 06:59:08;;;;;;;8.27;2.00;;;;;;;;;;4985797;28;20034;-72
2022/01/27 07:01:34;;;;;;;5.10;2.10;;;;;;;;;;4998744;28;20061;-72
2022/01/27 07:04:01;;;;;;;8.77;2.33;;;;;;;;;;4984059;28;20445;-72
2022/01/27 07:06:27;;;;;;;3.88;2.25;;;;;;;;;;4979317;28;20030;-72
2022/01/27 07:08:53;;;;;;;6.47;3.80;;;;;;;;;;5002469;28;20389;-73
2022/01/27 07:11:20;;;;;;;8.00;2.65;;;;;;;;;;4984948;28;20417;-73
2022/01/27 07:13:46;;;;;;;9.30;2.95;;;;;;;;;;5001717;28;20507;-72
2022/01/27 07:16:12;;;;;;;8.10;2.38;;;;;;;;;;4989290;28;20038;-72
2022/01/27 07:18:38;;;;;;;2.80;2.00;;;;;;;;;;4982445;28;20045;-72
2022/01/27 07:21:04;;;;;;;5.28;2.10;;;;;;;;;;4980851;28;20431;-72
2022/01/27 07:23:30;;;;;;;3.03;1.80;;;;;;;;;;4993598;28;20018;-73
2022/01/27 07:25:57;;;;;;;7.30;2.28;;;;;;;;;;4987261;28;20030;-71
2022/01/27 07:28:23;;;;;;;5.78;2.33;;;;;;;;;;4987247;28;20022;-71
2022/01/27 07:30:50;;;;;;;14.00;2.50;;;;;;;;;;4980779;28;20040;-73
2022/01/27 07:33:16;;;;;;;8.43;2.35;;;;;;;;;;4992407;28;20103;-73
2022/01/27 07:35:42;;;;;;;4.57;2.72;;;;;;;;;;4981111;28;20022;-73
2022/01/27 07:38:08;;;;;;;4.13;2.38;;;;;;;;;;4986550;28;20264;-72
2022/01/27 07:40:34;;;;;;;4.68;1.98;;;;;;;;;;4982817;28;20485;-72
2022/01/27 07:43:01;;;;;;;4.90;2.05;;;;;;;;;;4984390;28;20113;-73
2022/01/27 07:45:27;;;;;;;4.47;2.42;;;;;;;;;;4984932;28;20026;-72
2022/01/27 07:47:53;;;;;;;6.28;1.95;;;;;;;;;;4980647;28;20030;-72
2022/01/27 07:50:21;;;;;;;6.00;2.40;;;;;;;;;;4981567;28;20064;-72
2022/01/27 07:52:47;;;;;;;6.50;3.30;;;;;;;;;;4991130;28;20022;-73
2022/01/27 07:55:13;;;;;;;2.58;2.00;;;;;;;;;;4991383;28;20174;-73
2022/01/27 07:57:40;;;;;;;10.32;3.15;;;;;;;;;;4990374;28;20030;-72
2022/01/27 08:00:06;;;;;;;7.75;2.40;;;;;;;;;;4986846;28;20038;-72
2022/01/27 08:02:32;;;;;;;5.15;2.35;;;;;;;;;;4985913;28;20034;-73
2022/01/27 08:04:59;;;;;;;9.52;3.88;;;;;;;;;;4987624;28;20038;-72
2022/01/27 08:07:25;;;;;;;7.13;2.75;;;;;;;;;;4982685;28;20401;-73
2022/01/27 08:09:51;;;;;;;5.95;2.40;;;;;;;;;;4983253;28;20037;-72
2022/01/27 08:12:18;;;;;;;5.15;2.00;;;;;;;;;;4995980;28;20034;-72
2022/01/27 08:14:44;;;;;;;4.85;2.30;;;;;;;;;;4990503;28;20489;-73
2022/01/27 08:17:10;;;;;;;7.05;3.13;;;;;;;;;;4989201;28;20109;-72
2022/01/27 08:19:36;;;;;;;7.18;2.22;;;;;;;;;;4985994;28;20070;-72
2022/01/27 08:22:03;;;;;;;6.80;2.58;;;;;;;;;;4992137;28;20045;-72
2022/01/27 08:24:29;;;;;;;12.82;3.13;;;;;;;;;;4980596;28;20069;-72
2022/01/27 08:27:03;;;;;;;10.15;2.38;;;;;;;;;;4993049;28;20053;-72
2022/01/27 08:29:38;;;;;;;4.10;2.20;;;;;;;;;;4972684;28;20437;-71
2022/01/27 08:32:06;;;;;;;6.68;2.15;;;;;;;;;;4989724;28;20571;-72
2022/01/27 08:34:36;;;;;;;6.80;2.60;;;;;;;;;;4991748;28;20022;-72
2022/01/27 08:37:07;;;;;;;7.03;2.50;;;;;;;;;;4991491;28;20037;-73
2022/01/27 08:39:33;;;;;;;3.38;2.58;;;;;;;;;;4989637;28;20038;-75
2022/01/27 08:41:59;;;;;;;6.57;2.90;;;;;;;;;;4981649;28;20090;-71
2022/01/27 08:44:25;;;;;;;9.05;4.10;;;;;;;;;;4981739;28;20026;-73
2022/01/27 08:46:51;;;;;;;13.68;2.90;;;;;;;;;;4995480;28;20034;-71
2022/01/27 08:49:20;;;;;;;6.35;3.13;;;;;;;;;;4980259;28;20030;-71
2022/01/27 08:51:46;;;;;;;12.43;2.90;;;;;;;;;;4981820;28;20023;-72
2022/01/27 08:54:13;;;;;;;6.45;2.15;;;;;;;;;;4982413;28;20030;-72
2022/01/27 08:56:39;;;;;;;8.57;3.22;;;;;;;;;;4979907;28;20112;-72
2022/01/27 08:59:05;;;;;;;11.80;2.88;;;;;;;;;;4981374;28;20072;-71
2022/01/27 09:01:31;;;;;;;7.00;3.28;;;;;;;;;;4980528;28;20451;-71
2022/01/27 09:03:57;;;;;;;7.45;2.35;;;;;;;;;;4981277;28;20036;-73
2022/01/27 09:06:24;;;;;;;8.63;2.70;;;;;;;;;;4981626;28;20377;-72
2022/01/27 09:08:50;;;;;;;5.85;2.55;;;;;;;;;;4982261;28;20046;-73
2022/01/27 09:11:17;;;;;;;9.25;2.55;;;;;;;;;;4995476;28;20022;-73
2022/01/27 09:13:44;;;;;;;8.02;2.58;;;;;;;;;;4981173;28;20035;-73
2022/01/27 09:16:11;;;;;;;5.82;2.35;;;;;;;;;;4996713;28;20092;-73
2022/01/27 09:18:38;;;;;;;10.07;3.63;;;;;;;;;;4982582;28;20412;-72
2022/01/27 09:21:14;;;;;;;13.35;3.22;;;;;;;;;;4987209;28;20069;-72
2022/01/27 09:23:40;;;;;;;5.00;2.63;;;;;;;;;;4997825;28;20033;-73
2022/01/27 09:26:09;;;;;;;10.13;2.85;;;;;;;;;;4984954;28;20035;-73
2022/01/27 09:28:36;;;;;;;8.55;2.33;;;;;;;;;;4983891;28;20075;-71
2022/01/27 09:31:04;;;;;;;7.65;3.50;;;;;;;;;;4982333;28;20035;-71
2022/01/27 09:33:30;;;;;;;9.15;2.75;;;;;;;;;;4983751;28;20030;-72
2022/01/27 09:35:56;;;;;;;6.63;2.60;;;;;;;;;;4982266;28;20026;-71
2022/01/27 09:38:22;;;;;;;11.82;2.90;;;;;;;;;;4980159;28;20034;-71
2022/01/27 09:40:50;;;;;;;7.78;2.75;;;;;;;;;;4980976;28;20038;-72
2022/01/27 09:43:17;;;;;;;6.38;3.47;;;;;;;;;;4984159;28;20034;-71
2022/01/27 09:45:43;;;;;;;7.93;2.47;;;;;;;;;;4983736;28;20752;-70
2022/01/27 09:48:14;;;;;;;9.65;2.40;;;;;;;;;;4985433;28;20030;-72
2022/01/27 09:53:08;;;;;;;6.82;2.95;;;;;;;;;;4984786;28;20069;-71
2022/01/27 09:55:34;;;;;;;12.18;2.90;;;;;;;;;;4981639;28;20146;-71
2022/01/27 09:58:01;;;;;;;10.60;2.58;;;;;;;;;;4984696;28;20045;-72
2022/01/27 10:00:28;;;;;;;10.20;3.33;;;;;;;;;;4982260;28;21907;-70
2022/01/27 10:03:13;;;;;;;10.07;3.22;;;;;;;;;;4994301;28;20034;-73
2022/01/27 10:05:40;;;;;;;8.55;3.95;;;;;;;;;;4977149;28;20041;-71
2022/01/27 10:08:12;;;;;;;10.68;3.83;;;;;;;;;;4974840;28;20075;-72
2022/01/27 10:10:41;;;;;;;6.18;2.92;;;;;;;;;;4985569;28;20030;-70
2022/01/27 10:13:08;;;;;;;15.60;4.88;;;;;;;;;;4983647;28;20026;-71
2022/01/27 10:15:42;;;;;;;10.20;3.78;;;;;;;;;;4983322;28;20567;-71
2022/01/27 10:18:10;;;;;;;9.57;4.70;;;;;;;;;;4983488;28;20093;-72
2022/01/27 10:20:40;;;;;;;6.38;3.30;;;;;;;;;;4981742;28;20109;-72
2022/01/27 10:23:21;;;;;;;9.20;3.70;;;;;;;;;;4983743;28;20165;-72
2022/01/27 10:25:53;;;;;;;8.55;4.03;;;;;;;;;;4984659;28;20472;-71
2022/01/27 10:31:01;;;;;;;16.25;5.43;;;;;;;;;;4986048;28;20034;-72
2022/01/27 10:33:28;;;;;;;7.10;3.17;;;;;;;;;;4997006;28;20037;-71
2022/01/27 10:35:54;;;;;;;7.20;3.13;;;;;;;;;;4983564;28;20504;-71
2022/01/27 10:38:20;;;;;;;10.30;3.40;;;;;;;;;;4996726;28;20033;-71
2022/01/27 10:40:48;;;;;;;4.13;2.20;;;;;;;;;;4976410;28;20040;-71
2022/01/27 10:43:15;;;;;;;11.02;3.08;;;;;;;;;;4978059;28;20030;-70
2022/01/27 10:46:07;;;;;;;9.90;3.55;;;;;;;;;;4983619;28;20026;-71
2022/01/27 10:48:34;;;;;;;11.07;3.67;;;;;;;;;;4985188;28;20041;-70
2022/01/27 10:51:05;;;;;;;9.48;4.32;;;;;;;;;;4998465;28;20030;-70
2022/01/27 10:53:45;;;;;;;12.32;4.35;;;;;;;;;;4982706;28;20092;-70
2022/01/27 10:56:15;;;;;;;9.90;3.90;;;;;;;;;;4982785;28;20057;-72
2022/01/27 10:58:42;;;;;;;9.18;3.03;;;;;;;;;;4983777;28;20022;-70
2022/01/27 11:01:08;;;;;;;6.82;4.38;;;;;;;;;;4985704;28;20034;-71
2022/01/27 11:03:35;;;;;;;8.52;2.92;;;;;;;;;;4983591;28;20081;-72
2022/01/27 11:06:10;;;;;;;9.50;3.13;;;;;;;;;;4983258;28;20031;-71
2022/01/27 11:08:39;;;;;;;8.38;2.42;;;;;;;;;;4982897;28;20085;-71
2022/01/27 11:11:05;;;;;;;7.55;2.65;;;;;;;;;;4986572;28;20049;-71
2022/01/27 11:13:33;;;;;;;5.40;2.10;;;;;;;;;;4982248;28;20026;-70
2022/01/27 11:16:00;;;;;;;6.65;2.55;;;;;;;;;;4984625;28;20073;-70
2022/01/27 11:18:28;;;;;;;4.20;2.75;;;;;;;;;;4982846;28;20030;-70
2022/01/27 11:25:51;;;;;;;6.00;2.03;;;;;;;;;;4984434;28;20038;-70
2022/01/27 11:28:19;;;;;;;3.70;2.50;;;;;;;;;;4997703;28;20021;-71
2022/01/27 11:30:48;;;;;;;3.47;2.03;;;;;;;;;;4983526;28;20038;-71
2022/01/27 11:33:14;;;;;;;7.57;2.72;;;;;;;;;;4981596;28;20129;-72
2022/01/27 11:35:41;;;;;;;4.45;2.25;;;;;;;;;;4984175;28;20040;-70
2022/01/27 11:38:08;;;;;;;4.35;2.05;;;;;;;;;;4978414;28;20037;-70
2022/01/27 11:40:47;;;;;;;9.15;2.45;;;;;;;;;;4974212;28;20042;-71
2022/01/27 11:43:14;;;;;;;4.50;1.90;;;;;;;;;;4977386;28;20648;-71
2022/01/27 11:45:46;;;;;;;2.33;1.92;;;;;;;;;;4977288;28;20049;-70
2022/01/27 11:48:14;;;;;;;4.93;1.75;;;;;;;;;;4973813;28;20046;-71
2022/01/27 11:50:56;;;;;;;3.38;1.50;;;;;;;;;;4972794;28;20034;-70
2022/01/27 11:53:31;;;;;;;3.20;1.60;;;;;;;;;;4975567;28;20956;-70
2022/01/27 11:55:57;;;;;;;4.57;1.88;;;;;;;;;;4974267;28;20100;-70
2022/01/27 11:58:25;;;;;;;4.72;1.60;;;;;;;;;;4977540;28;21451;-70
2022/01/27 12:01:01;;;;;;;4.78;2.10;;;;;;;;;;4975971;28;20523;-69
2022/01/27 12:03:27;;;;;;;3.65;1.95;;;;;;;;;;4979773;28;20082;-73
2022/01/27 12:06:12;;;;;;;3.47;1.88;;;;;;;;;;4982512;28;20037;-70
2022/01/27 12:08:39;;;;;;;4.35;1.95;;;;;;;;;;4976574;28;20054;-69
2022/01/27 12:11:09;;;;;;;3.70;1.67;;;;;;;;;;4972768;28;20046;-69
2022/01/27 12:13:43;;;;;;;4.22;1.88;;;;;;;;;;4974579;28;20401;-70
2022/01/27 12:18:56;;;;;;;4.00;2.08;;;;;;;;;;4975482;28;20502;-71
2022/01/27 12:21:29;;;;;;;2.25;1.70;;;;;;;;;;4990164;28;20034;-71
2022/01/27 12:24:11;;;;;;;2.97;1.70;;;;;;;;;;4975574;28;20070;-71
2022/01/27 12:26:46;;;;;;;2.70;1.63;;;;;;;;;;4974256;28;20058;-70
2022/01/27 12:29:21;;;;;;;5.95;1.80;;;;;;;;;;4975264;28;20073;-70
2022/01/27 12:31:47;;;;;;;2.00;1.50;;;;;;;;;;4976820;28;20023;-71
2022/01/27 12:34:13;;;;;;;2.45;2.13;;;;;;;;;;4975371;28;20030;-71
2022/01/27 12:36:39;;;;;;;2.50;1.80;;;;;;;;;;4972939;28;20045;-71
2022/01/27 12:39:05;;;;;;;2.22;1.67;;;;;;;;;;4975019;28;20034;-72
2022/01/27 12:41:38;;;;;;;2.10;1.90;;;;;;;;;;4974140;28;20100;-71
2022/01/27 12:44:10;;;;;;;2.85;1.75;;;;;;;;;;4979586;28;20480;-71
2022/01/27 12:46:37;;;;;;;4.03;1.83;;;;;;;;;;4992158;28;20045;-71
2022/01/27 12:49:04;;;;;;;12.90;3.88;;;;;;;;;;4974576;28;20072;-70
2022/01/27 12:51:48;;;;;;;4.53;1.80;;;;;;;;;;4988489;28;20690;-71
2022/01/27 12:54:14;;;;;;;4.60;2.35;;;;;;;;;;4981320;28;20022;-71
2022/01/27 12:56:40;;;;;;;4.72;2.35;;;;;;;;;;4980043;28;20149;-71
2022/01/27 12:59:14;;;;;;;8.27;2.78;;;;;;;;;;4977337;28;20030;-72
2022/01/27 13:01:40;;;;;;;5.88;2.05;;;;;;;;;;4976113;28;20076;-72
2022/01/27 13:04:06;;;;;;;3.25;2.03;;;;;;;;;;4979163;28;20034;-72
2022/01/27 13:06:32;;;;;;;4.10;2.20;;;;;;;;;;4981997;28;20030;-71
2022/01/27 13:09:14;;;;;;;2.70;1.60;;;;;;;;;;4981487;28;20125;-72
2022/01/27 13:11:41;;;;;;;2.45;1.60;;;;;;;;;;4977597;28;20054;-72
2022/01/27 13:14:08;;;;;;;1.75;1.63;;;;;;;;;;4977571;28;20026;-71
2022/01/27 13:16:41;;;;;;;4.03;1.80;;;;;;;;;;4979806;28;20038;-73
2022/01/27 13:19:19;;;;;;;3.30;1.60;;;;;;;;;;4978627;28;20026;-71
2022/01/27 13:21:50;;;;;;;3.03;1.52;;;;;;;;;;4977591;28;20541;-71
2022/01/27 13:24:18;;;;;;;2.53;1.60;;;;;;;;;;4982089;28;20030;-71
2022/01/27 13:26:46;;;;;;;3.92;1.40;;;;;;;;;;4980350;28;20478;-70
2022/01/27 13:29:13;;;;;;;2.10;1.60;;;;;;;;;;4981160;28;20026;-71
2022/01/27 13:31:39;;;;;;;3.45;1.80;;;;;;;;;;4977331;28;20833;-72
2022/01/27 13:34:05;;;;;;;2.90;1.50;;;;;;;;;;4978249;28;20851;-72
2022/01/27 13:36:35;;;;;;;2.17;1.70;;;;;;;;;;4978114;28;20473;-72
2022/01/27 13:41:45;;;;;;;2.35;1.48;;;;;;;;;;4977771;28;20054;-73
2022/01/27 13:44:15;;;;;;;3.60;1.90;;;;;;;;;;4990327;28;20282;-72
2022/01/27 13:46:48;;;;;;;1.42;1.30;;;;;;;;;;4973745;28;20488;-72
2022/01/27 13:49:22;;;;;;;2.13;1.42;;;;;;;;;;4979032;28;20034;-71
2022/01/27 13:51:48;;;;;;;2.10;1.60;;;;;;;;;;4980339;28;20080;-71
2022/01/27 13:54:14;;;;;;;2.80;1.63;;;;;;;;;;4979456;28;20033;-72
2022/01/27 13:56:45;;;;;;;1.85;1.75;;;;;;;;;;4979197;28;20144;-71
2022/01/27 13:59:14;;;;;;;2.25;1.52;;;;;;;;;;4976755;28;20480;-72
2022/01/27 14:01:41;;;;;;;3.00;1.48;;;;;;;;;;4975979;28;20054;-70
2022/01/27 14:04:07;;;;;;;3.00;1.67;;;;;;;;;;4977105;28;20129;-70
2022/01/27 14:06:46;;;;;;;3.63;2.00;;;;;;;;;;4979403;28;20851;-70
2022/01/27 14:09:19;;;;;;;4.93;3.00;;;;;;;;;;4977543;28;20416;-70
2022/01/27 14:11:45;;;;;;;6.75;2.97;;;;;;;;;;4976719;28;20568;-70
2022/01/27 14:14:11;;;;;;;5.43;3.53;;;;;;;;;;4979098;28;20034;-71
2022/01/27 14:16:37;;;;;;;9.00;4.25;;;;;;;;;;4993600;28;20121;-71
2022/01/27 14:19:12;;;;;;;7.03;3.60;;;;;;;;;;4980797;28;20192;-71
2022/01/27 14:21:42;;;;;;;6.75;3.03;;;;;;;;;;4976795;28;20031;-70
2022/01/27 14:24:11;;;;;;;6.28;2.80;;;;;;;;;;4977693;28;20483;-71
2022/01/27 14:26:44;;;;;;;4.90;3.17;;;;;;;;;;4992157;28;20034;-71
2022/01/27 14:29:16;;;;;;;7.43;2.20;;;;;;;;;;4975392;28;20050;-71
2022/01/27 14:31:49;;;;;;;3.83;1.98;;;;;;;;;;4976243;28;20031;-71
2022/01/27 14:34:15;;;;;;;3.03;2.00;;;;;;;;;;4977094;28;20393;-72
2022/01/27 14:36:43;;;;;;;2.88;1.52;;;;;;;;;;4980456;28;20026;-72
2022/01/27 14:39:09;;;;;;;2.22;1.58;;;;;;;;;;4977760;28;20022;-70
2022/01/27 14:41:36;;;;;;;2.75;1.60;;;;;;;;;;4975862;28;20038;-72
2022/01/27 14:44:02;;;;;;;2.70;1.70;;;;;;;;;;4980390;28;20050;-71
2022/01/27 14:46:40;;;;;;;5.10;1.67;;;;;;;;;;4979551;28;20109;-71
2022/01/27 14:49:08;;;;;;;2.65;1.60;;;;;;;;;;4978047;28;20026;-71
2022/01/27 14:51:35;;;;;;;2.85;2.03;;;;;;;;;;4990399;28;20030;-70
2022/01/27 14:54:01;;;;;;;2.72;1.70;;;;;;;;;;4978794;28;20080;-71
2022/01/27 14:56:28;;;;;;;1.88;1.67;;;;;;;;;;4980294;28;20040;-70
2022/01/27 14:58:54;;;;;;;2.30;1.48;;;;;;;;;;4988610;28;20061;-70
2022/01/27 15:01:20;;;;;;;3.03;1.70;;;;;;;;;;4983628;28;20037;-70
2022/01/27 15:03:46;;;;;;;1.98;1.67;;;;;;;;;;4982998;28;20058;-70
2022/01/27 15:06:12;;;;;;;3.05;1.70;;;;;;;;;;4990783;28;20026;-70
2022/01/27 15:08:39;;;;;;;3.97;2.50;;;;;;;;;;4977981;28;20069;-70
2022/01/27 15:11:05;;;;;;;4.75;4.22;;;;;;;;;;4977014;28;20041;-70
2022/01/27 15:13:33;;;;;;;5.38;2.80;;;;;;;;;;4976827;28;20038;-71
2022/01/27 15:18:49;;;;;;;7.20;3.40;;;;;;;;;;4976140;28;20511;-70
2022/01/27 15:21:15;;;;;;;6.15;4.30;;;;;;;;;;4975330;28;20041;-71
2022/01/27 15:23:42;;;;;;;7.35;3.20;;;;;;;;;;4974372;28;20504;-70
2022/01/27 15:26:08;;;;;;;7.78;3.22;;;;;;;;;;4974392;28;20076;-70
2022/01/27 15:28:34;;;;;;;3.95;2.35;;;;;;;;;;4976035;28;20034;-71
2022/01/27 15:31:01;;;;;;;3.78;2.63;;;;;;;;;;4977035;28;20049;-70
2022/01/27 15:33:31;;;;;;;5.70;3.40;;;;;;;;;;4975395;28;20046;-70
2022/01/27 15:36:04;;;;;;;4.90;3.92;;;;;;;;;;4975577;28;20041;-70
2022/01/27 15:38:33;;;;;;;4.40;2.15;;;;;;;;;;4975572;28;20902;-70
2022/01/27 15:41:00;;;;;;;5.65;2.25;;;;;;;;;;4974819;28;20084;-70
2022/01/27 15:43:26;;;;;;;6.53;3.17;;;;;;;;;;4972036;28;20034;-71
2022/01/27 15:45:52;;;;;;;5.88;2.45;;;;;;;;;;4976040;28;20030;-71
2022/01/27 15:48:18;;;;;;;2.72;1.77;;;;;;;;;;4977398;28;20301;-71